Centenario Forza — 3EXU5 — position and weather

sailwx.info

Track history (hours):
 
Tides and Currents Weather Stations Pressure Air Temp Water Temp Dewpoint Dewpoint Depression Visibility Wind Speed Wind Dir Waves Ship Positions

Centenario Forza

Last reported at 2018-Apr-24 00:56 UTC. Time now 2018-Apr-24 01:09 UTC.
Position N 01°17' E 103°60'.

Length 190 m; draft 12.4 m.

Type: Ship. MMSI: 373138000.

Date/timePositionNaut miles runAvg speedWind from/ knotsBaromVisibWave heightAir tempDewpointWater temp
2018-Apr-24 00:56N 01°17' E 103°60'0 0.0
2018-Apr-24 00:28N 01°17' E 103°60'0 0.0
2018-Apr-23 23:58N 01°17' E 103°60'0 0.0
2018-Apr-23 23:20N 01°17' E 103°60'0 0.0
2018-Apr-23 22:59N 01°17' E 103°60'0 0.0
2018-Apr-23 22:23N 01°17' E 103°60'0 0.1
2018-Apr-23 21:59N 01°17' E 103°60'0 0.1
2018-Apr-23 21:29N 01°17' E 103°60'0 0.0
2018-Apr-23 20:53N 01°17' E 103°60'0 0.1
2018-Apr-23 20:22N 01°17' E 103°60'0 0.0
2018-Apr-23 19:58N 01°17' E 103°60'0 0.1
2018-Apr-23 19:16N 01°17' E 103°60'0 0.0
2018-Apr-23 18:59N 01°17' E 103°60'0 0.1
2018-Apr-23 18:16N 01°17' E 103°60'0 0.0
2018-Apr-23 17:58N 01°17' E 103°60'0 0.0
2018-Apr-23 17:26N 01°17' E 103°60'0 0.0
2018-Apr-23 16:59N 01°17' E 103°60'0 0.0
2018-Apr-23 16:30N 01°17' E 103°60'0 0.0
2018-Apr-23 15:59N 01°17' E 103°60'0 0.0
2018-Apr-23 15:30N 01°17' E 103°60'0 0.0
2018-Apr-23 15:00N 01°17' E 103°60'0 0.0
2018-Apr-23 14:31N 01°17' E 103°60'0 0.0
2018-Apr-23 13:59N 01°17' E 103°60'0 0.0
2018-Apr-23 13:29N 01°17' E 103°60'0 0.1
2018-Apr-23 12:59N 01°17' E 103°60'0 0.0
2018-Apr-23 12:30N 01°17' E 103°60'0 0.9
2018-Apr-23 11:59N 01°17' E 103°59'2 4.7
2018-Apr-23 11:30N 01°16' E 103°57'2 4.1
2018-Apr-23 10:58N 01°14' E 103°56'4 8.5
2018-Apr-23 10:30N 01°12' E 103°53'5 9.8
2018-Apr-23 09:59N 01°10' E 103°48'5 9.3
2018-Apr-23 09:30N 01°07' E 103°45'6 9.9
2018-Apr-23 08:57N 01°03' E 103°40'4 8.3
2018-Apr-23 08:30N 01°04' E 103°37'510.8
2018-Apr-23 07:59N 01°07' E 103°32'611.7
2018-Apr-23 07:30N 01°10' E 103°27'611.6
2018-Apr-23 06:59N 01°14' E 103°23'611.7
2018-Apr-23 06:29N 01°17' E 103°18'611.6
2018-Apr-23 05:59N 01°21' E 103°13'711.4
2018-Apr-23 05:23N 01°25' E 103°08'  
Track history (hours):
 
Tides and Currents Weather Stations Pressure Air Temp Water Temp Dewpoint Dewpoint Depression Visibility Wind Speed Wind Dir Waves Ship Positions

Centenario Forza

Last reported at 2018-Apr-24 00:56 UTC. Time now 2018-Apr-24 01:09 UTC.
Position N 01°17' E 103°60'.

Length 190 m; draft 12.4 m.

Type: Ship. MMSI: 373138000.

Date/timePositionNaut miles runAvg speedWind from/ knotsBaromVisibWave heightAir tempDewpointWater temp
2018-Apr-24 00:56N 01°17' E 103°60'0 0.0
2018-Apr-24 00:28N 01°17' E 103°60'0 0.0
2018-Apr-23 23:58N 01°17' E 103°60'0 0.0
2018-Apr-23 23:20N 01°17' E 103°60'0 0.0
2018-Apr-23 22:59N 01°17' E 103°60'0 0.0
2018-Apr-23 22:23N 01°17' E 103°60'0 0.1
2018-Apr-23 21:59N 01°17' E 103°60'0 0.1
2018-Apr-23 21:29N 01°17' E 103°60'0 0.0
2018-Apr-23 20:53N 01°17' E 103°60'0 0.1
2018-Apr-23 20:22N 01°17' E 103°60'0 0.0
2018-Apr-23 19:58N 01°17' E 103°60'0 0.1
2018-Apr-23 19:16N 01°17' E 103°60'0 0.0
2018-Apr-23 18:59N 01°17' E 103°60'0 0.1
2018-Apr-23 18:16N 01°17' E 103°60'0 0.0
2018-Apr-23 17:58N 01°17' E 103°60'0 0.0
2018-Apr-23 17:26N 01°17' E 103°60'0 0.0
2018-Apr-23 16:59N 01°17' E 103°60'0 0.0
2018-Apr-23 16:30N 01°17' E 103°60'0 0.0
2018-Apr-23 15:59N 01°17' E 103°60'0 0.0
2018-Apr-23 15:30N 01°17' E 103°60'0 0.0
2018-Apr-23 15:00N 01°17' E 103°60'0 0.0
2018-Apr-23 14:31N 01°17' E 103°60'0 0.0
2018-Apr-23 13:59N 01°17' E 103°60'0 0.0
2018-Apr-23 13:29N 01°17' E 103°60'0 0.1
2018-Apr-23 12:59N 01°17' E 103°60'0 0.0
2018-Apr-23 12:30N 01°17' E 103°60'0 0.9
2018-Apr-23 11:59N 01°17' E 103°59'2 4.7
2018-Apr-23 11:30N 01°16' E 103°57'2 4.1
2018-Apr-23 10:58N 01°14' E 103°56'4 8.5
2018-Apr-23 10:30N 01°12' E 103°53'5 9.8
2018-Apr-23 09:59N 01°10' E 103°48'5 9.3
2018-Apr-23 09:30N 01°07' E 103°45'6 9.9
2018-Apr-23 08:57N 01°03' E 103°40'4 8.3
2018-Apr-23 08:30N 01°04' E 103°37'510.8
2018-Apr-23 07:59N 01°07' E 103°32'611.7
2018-Apr-23 07:30N 01°10' E 103°27'611.6
2018-Apr-23 06:59N 01°14' E 103°23'611.7
2018-Apr-23 06:29N 01°17' E 103°18'611.6
2018-Apr-23 05:59N 01°21' E 103°13'711.4
2018-Apr-23 05:23N 01°25' E 103°08'  

Dump ship's entire track history